Time;durP1;ratioP1;P1;durP2;ratioP2;P2;SDS_P1;SDS_P2;PMS_P1;PMS_P2;Temp;Humidity;BMP_temperature;BMP_pressure;BME280_temperature;BME280_humidity;BME280_pressure;Samples;Min_cycle;Max_cycle;Signal;HPM_P1;HPM_P2
2022/04/11 00:02:17;;;;;;;14.03;3.40;;;3.30;1.00;;;;;;5028713;28;20222;-51
2022/04/11 00:04:42;;;;;;;4.60;2.30;;;3.30;1.00;;;;;;5027601;28;20253;-50
2022/04/11 00:07:08;;;;;;;9.83;2.60;;;3.20;1.00;;;;;;5029324;28;20433;-51
2022/04/11 00:09:34;;;;;;;6.93;2.43;;;3.20;1.00;;;;;;5029266;28;20935;-51
2022/04/11 00:11:59;;;;;;;13.40;3.00;;;3.30;1.00;;;;;;5029274;28;20594;-51
2022/04/11 00:14:25;;;;;;;9.57;2.60;;;3.30;1.00;;;;;;5029700;28;20268;-51
2022/04/11 00:16:51;;;;;;;9.47;2.60;;;3.30;1.00;;;;;;5028364;28;20203;-51
2022/04/11 00:19:16;;;;;;;6.20;2.60;;;3.20;1.00;;;;;;5028768;28;20191;-51
2022/04/11 00:21:42;;;;;;;6.83;2.73;;;3.20;1.00;;;;;;5011208;28;20617;-51
2022/04/11 00:24:08;;;;;;;13.33;3.03;;;3.20;1.00;;;;;;5029548;28;20201;-51
2022/04/11 00:26:33;;;;;;;8.97;2.50;;;3.10;1.00;;;;;;5012557;28;20302;-51
2022/04/11 00:28:59;;;;;;;8.20;3.17;;;3.10;1.00;;;;;;5028715;28;21177;-51
2022/04/11 00:31:25;;;;;;;5.73;2.20;;;3.10;1.00;;;;;;5029161;28;20199;-51
2022/04/11 00:33:50;;;;;;;4.67;2.63;;;3.00;1.00;;;;;;5028379;28;20266;-51
2022/04/11 00:36:17;;;;;;;8.47;2.70;;;3.00;1.00;;;;;;5028374;28;20246;-51
2022/04/11 00:38:42;;;;;;;5.07;2.70;;;3.10;1.00;;;;;;5026221;28;20183;-51
2022/04/11 00:41:08;;;;;;;5.23;2.43;;;3.10;1.00;;;;;;5013901;28;20425;-50
2022/04/11 00:43:34;;;;;;;6.00;2.53;;;3.10;1.00;;;;;;5028417;28;20186;-50
2022/04/11 00:46:02;;;;;;;13.23;2.60;;;3.20;1.00;;;;;;5017831;28;20231;-50
2022/04/11 00:48:28;;;;;;;22.40;3.77;;;3.10;1.00;;;;;;5006916;28;20438;-51
2022/04/11 00:51:00;;;;;;;13.20;2.90;;;3.10;1.00;;;;;;5009237;28;20974;-51
2022/04/11 00:53:26;;;;;;;12.97;2.83;;;3.00;1.00;;;;;;5012167;28;20187;-52
2022/04/11 00:55:54;;;;;;;8.80;2.70;;;3.00;1.00;;;;;;5012835;28;20462;-50
2022/04/11 00:58:20;;;;;;;9.50;2.77;;;2.90;1.00;;;;;;5008841;28;20529;-51
2022/04/11 01:00:45;;;;;;;11.80;2.97;;;2.80;1.00;;;;;;5010586;28;20481;-51
2022/04/11 01:03:11;;;;;;;11.00;3.10;;;2.70;1.00;;;;;;5018454;28;20476;-51
2022/04/11 01:05:38;;;;;;;6.10;2.90;;;2.70;1.00;;;;;;5010786;28;20175;-51
2022/04/11 01:08:07;;;;;;;6.80;2.87;;;2.70;1.00;;;;;;5010738;28;20188;-51
2022/04/11 01:10:33;;;;;;;12.00;3.30;;;2.70;1.00;;;;;;5009203;28;20558;-51
2022/04/11 01:12:58;;;;;;;10.73;3.70;;;2.70;1.00;;;;;;5009497;28;20433;-51
2022/04/11 01:15:24;;;;;;;7.00;2.73;;;2.70;1.00;;;;;;5008048;28;20466;-51
2022/04/11 01:17:49;;;;;;;8.17;3.43;;;2.60;1.00;;;;;;5015888;28;20593;-51
2022/04/11 01:20:19;;;;;;;8.27;2.87;;;2.70;1.00;;;;;;5016906;28;20649;-52
2022/04/11 01:22:45;;;;;;;12.33;2.70;;;2.60;1.00;;;;;;5019870;28;20203;-51
2022/04/11 01:25:11;;;;;;;11.00;2.87;;;2.70;1.00;;;;;;4999032;28;20434;-51
2022/04/11 01:27:37;;;;;;;8.13;2.57;;;2.80;1.00;;;;;;5008219;28;20194;-51
2022/04/11 01:30:04;;;;;;;11.33;3.03;;;2.70;1.00;;;;;;5039635;28;20266;-51
2022/04/11 01:32:29;;;;;;;8.17;2.43;;;2.70;1.00;;;;;;5010836;28;20427;-51
2022/04/11 01:34:56;;;;;;;10.80;2.83;;;2.70;1.00;;;;;;5021734;28;20421;-50
2022/04/11 01:37:22;;;;;;;7.53;2.57;;;2.80;1.00;;;;;;5007699;28;20265;-51
2022/04/11 01:39:47;;;;;;;6.83;3.13;;;2.80;1.00;;;;;;5009487;28;20414;-51
2022/04/11 01:42:13;;;;;;;10.93;2.83;;;2.80;1.00;;;;;;5007952;28;20219;-51
2022/04/11 01:44:38;;;;;;;5.63;2.20;;;2.80;1.00;;;;;;5007408;28;20206;-51
2022/04/11 01:47:04;;;;;;;5.20;2.40;;;2.80;1.00;;;;;;5014139;28;20725;-51
2022/04/11 01:49:29;;;;;;;5.30;2.53;;;2.80;1.00;;;;;;5027235;28;20194;-50
2022/04/11 01:51:55;;;;;;;5.40;2.33;;;2.80;1.00;;;;;;5027622;28;20250;-51
2022/04/11 01:54:20;;;;;;;7.93;2.30;;;2.70;1.00;;;;;;5027260;28;20191;-51
2022/04/11 01:56:46;;;;;;;7.60;2.83;;;2.70;1.00;;;;;;5027032;28;20218;-51
2022/04/11 01:59:13;;;;;;;9.40;2.27;;;2.60;1.00;;;;;;5027752;28;20250;-51
2022/04/11 02:01:38;;;;;;;8.30;2.60;;;2.70;1.00;;;;;;5026519;28;20193;-50
2022/04/11 02:04:04;;;;;;;11.10;3.20;;;2.60;1.00;;;;;;5027725;28;20422;-51
2022/04/11 02:06:29;;;;;;;11.10;3.67;;;2.50;1.00;;;;;;5030805;28;20224;-51
2022/04/11 02:08:55;;;;;;;5.53;2.70;;;2.50;1.00;;;;;;5037578;28;20734;-51
2022/04/11 02:11:20;;;;;;;5.73;2.53;;;2.40;1.00;;;;;;5039219;28;20194;-51
2022/04/11 02:13:46;;;;;;;8.13;2.60;;;2.30;1.00;;;;;;5049783;28;20186;-51
2022/04/11 02:16:12;;;;;;;9.40;2.00;;;2.30;1.00;;;;;;5034029;28;20676;-51
2022/04/11 02:18:37;;;;;;;5.07;2.50;;;2.20;1.00;;;;;;5029215;28;20186;-51
2022/04/11 02:21:03;;;;;;;8.63;2.47;;;2.30;1.00;;;;;;5031251;28;20183;-50
2022/04/11 02:23:28;;;;;;;5.13;2.37;;;2.20;1.00;;;;;;5030520;28;20187;-50
2022/04/11 02:25:54;;;;;;;4.07;2.40;;;2.30;1.00;;;;;;5031341;28;20219;-51
2022/04/11 02:28:20;;;;;;;13.27;3.07;;;2.20;1.00;;;;;;5030136;28;20554;-51
2022/04/11 02:30:46;;;;;;;6.97;2.43;;;2.20;1.00;;;;;;5031524;28;20178;-52
2022/04/11 02:33:12;;;;;;;4.47;2.43;;;2.20;1.00;;;;;;5030451;28;20438;-51
2022/04/11 02:35:37;;;;;;;6.63;2.43;;;2.20;1.00;;;;;;5030819;28;20229;-51
2022/04/11 02:38:03;;;;;;;6.57;2.93;;;2.30;1.00;;;;;;5033167;28;20250;-51
2022/04/11 02:40:29;;;;;;;9.40;2.60;;;2.30;1.00;;;;;;5028515;28;20179;-51
2022/04/11 02:42:55;;;;;;;8.57;2.37;;;2.30;1.00;;;;;;5023419;28;20452;-51
2022/04/11 02:45:21;;;;;;;6.00;2.00;;;2.30;1.00;;;;;;5029397;28;20249;-50
2022/04/11 02:47:47;;;;;;;11.77;3.10;;;2.40;1.00;;;;;;5030235;28;20433;-51
2022/04/11 02:50:12;;;;;;;6.53;2.40;;;2.40;1.00;;;;;;5013558;28;20218;-51
2022/04/11 02:52:38;;;;;;;6.23;2.50;;;2.50;1.00;;;;;;5030948;28;20187;-50
2022/04/11 02:55:04;;;;;;;8.97;3.17;;;2.50;1.00;;;;;;5030541;28;20179;-51
2022/04/11 02:57:30;;;;;;;7.70;2.90;;;2.50;1.00;;;;;;5033883;28;20249;-51
2022/04/11 02:59:56;;;;;;;8.60;2.43;;;2.40;1.00;;;;;;5043236;28;20442;-50
2022/04/11 03:02:22;;;;;;;7.07;2.60;;;2.40;1.00;;;;;;5030400;28;20233;-51
2022/04/11 03:04:47;;;;;;;6.63;2.50;;;2.40;1.00;;;;;;5031058;28;20425;-51
2022/04/11 03:07:13;;;;;;;3.13;2.40;;;2.50;1.00;;;;;;5029849;28;20329;-51
2022/04/11 03:09:38;;;;;;;11.10;2.60;;;2.50;1.00;;;;;;5030736;28;20660;-50
2022/04/11 03:12:05;;;;;;;7.67;2.30;;;2.40;1.00;;;;;;5030207;28;20225;-51
2022/04/11 03:14:30;;;;;;;14.03;3.50;;;2.30;1.00;;;;;;5012315;28;20190;-50
2022/04/11 03:16:57;;;;;;;7.10;2.93;;;2.30;1.00;;;;;;5030555;28;20457;-51
2022/04/11 03:19:23;;;;;;;5.77;2.50;;;2.40;1.00;;;;;;5030529;28;20182;-51
2022/04/11 03:21:49;;;;;;;5.53;2.50;;;2.40;1.00;;;;;;5029391;28;20438;-50
2022/04/11 03:24:15;;;;;;;8.27;3.27;;;2.40;1.00;;;;;;5029044;28;20179;-51
2022/04/11 03:26:40;;;;;;;8.20;2.77;;;2.40;1.00;;;;;;5033404;28;20941;-51
2022/04/11 03:29:06;;;;;;;9.37;3.23;;;2.30;1.00;;;;;;5028288;28;20722;-51
2022/04/11 03:31:31;;;;;;;5.90;2.80;;;2.30;1.00;;;;;;5029341;28;20195;-51
2022/04/11 03:33:57;;;;;;;9.53;2.97;;;2.30;1.00;;;;;;5010691;28;20179;-50
2022/04/11 03:36:24;;;;;;;14.10;3.53;;;2.30;1.00;;;;;;5029229;28;20727;-51
2022/04/11 03:38:50;;;;;;;8.03;2.70;;;2.30;1.00;;;;;;5030515;28;20206;-50
2022/04/11 03:41:15;;;;;;;8.20;3.10;;;2.30;1.00;;;;;;5025028;28;20473;-51
2022/04/11 03:43:41;;;;;;;8.00;2.70;;;2.30;1.00;;;;;;5029518;28;20198;-51
2022/04/11 03:46:06;;;;;;;11.73;3.80;;;2.30;1.00;;;;;;5012005;28;20595;-50
2022/04/11 03:48:32;;;;;;;3.80;2.80;;;2.30;1.00;;;;;;5029072;28;20636;-50
2022/04/11 03:50:57;;;;;;;7.07;2.67;;;2.20;1.00;;;;;;5011381;28;20230;-51
2022/04/11 03:53:23;;;;;;;7.83;3.33;;;2.20;1.00;;;;;;5029078;28;20172;-51
2022/04/11 03:55:49;;;;;;;7.63;3.10;;;2.20;1.00;;;;;;5029227;28;20207;-50
2022/04/11 03:58:15;;;;;;;5.80;2.70;;;2.20;1.00;;;;;;5010562;28;20264;-50
2022/04/11 04:00:40;;;;;;;7.80;2.73;;;2.20;1.00;;;;;;5030014;28;20245;-51
2022/04/11 04:03:11;;;;;;;12.27;3.13;;;2.30;1.00;;;;;;5029191;28;20451;-50
2022/04/11 04:05:44;;;;;;;8.60;3.03;;;2.20;1.00;;;;;;5028364;28;20183;-51
2022/04/11 04:08:11;;;;;;;7.57;3.43;;;2.20;1.00;;;;;;5029090;28;20444;-51
2022/04/11 04:10:37;;;;;;;6.17;3.27;;;2.20;1.00;;;;;;5029451;28;20442;-51
2022/04/11 04:13:02;;;;;;;5.27;2.70;;;2.20;1.00;;;;;;5029001;28;20422;-51
2022/04/11 04:15:28;;;;;;;8.43;3.13;;;2.10;1.00;;;;;;5028817;28;20183;-50
2022/04/11 04:17:54;;;;;;;10.73;3.20;;;2.10;1.00;;;;;;5028414;28;20621;-51
2022/04/11 04:20:20;;;;;;;12.53;3.37;;;2.20;1.00;;;;;;5029932;28;20582;-52
2022/04/11 04:22:46;;;;;;;12.57;4.20;;;2.20;1.00;;;;;;5031828;28;20411;-51
2022/04/11 04:25:12;;;;;;;5.60;3.00;;;2.20;1.00;;;;;;5031136;28;20186;-53
2022/04/11 04:27:37;;;;;;;7.40;3.30;;;2.20;1.00;;;;;;5013577;28;21062;-51
2022/04/11 04:30:06;;;;;;;8.53;3.30;;;2.20;1.00;;;;;;5031395;28;20422;-52
2022/04/11 04:32:33;;;;;;;5.80;3.33;;;2.10;1.00;;;;;;5014445;28;20191;-49
2022/04/11 04:35:00;;;;;;;10.07;3.57;;;2.10;1.00;;;;;;5028622;28;20524;-49
2022/04/11 04:37:26;;;;;;;6.70;4.20;;;2.10;1.00;;;;;;5027952;28;20469;-49
2022/04/11 04:39:52;;;;;;;8.43;3.80;;;2.10;1.00;;;;;;5029339;28;20441;-48
2022/04/11 04:42:22;;;;;;;8.30;3.70;;;2.20;1.00;;;;;;5014123;28;20198;-51
2022/04/11 04:44:48;;;;;;;8.53;4.20;;;2.10;1.00;;;;;;5028563;28;20223;-48
2022/04/11 04:47:17;;;;;;;13.53;4.10;;;2.10;1.00;;;;;;5028402;28;20545;-49
2022/04/11 04:49:44;;;;;;;8.57;4.07;;;2.20;1.00;;;;;;5028571;28;20190;-49
2022/04/11 04:52:10;;;;;;;10.77;3.90;;;2.20;1.00;;;;;;5022327;28;20460;-49
2022/04/11 04:54:35;;;;;;;5.30;3.93;;;2.30;1.00;;;;;;5028526;28;20442;-48
2022/04/11 04:57:01;;;;;;;9.47;3.90;;;2.30;1.00;;;;;;5027683;28;21057;-49
2022/04/11 04:59:27;;;;;;;11.90;4.57;;;2.30;1.00;;;;;;5008778;28;20468;-49
2022/04/11 05:01:52;;;;;;;9.93;4.07;;;2.30;1.00;;;;;;5013939;28;20187;-49
2022/04/11 05:04:18;;;;;;;7.83;3.83;;;2.30;1.00;;;;;;5010609;28;20186;-49
2022/04/11 05:06:44;;;;;;;12.00;3.80;;;2.40;1.00;;;;;;5026757;28;20194;-48
2022/04/11 05:09:09;;;;;;;10.17;4.77;;;2.40;1.00;;;;;;5028221;28;20187;-49
2022/04/11 05:11:35;;;;;;;12.73;5.30;;;2.40;1.00;;;;;;5028101;28;20186;-49
2022/04/11 05:14:00;;;;;;;7.30;4.20;;;2.40;1.00;;;;;;5028635;28;20236;-49
2022/04/11 05:16:26;;;;;;;9.03;4.70;;;2.40;1.00;;;;;;5027379;28;20222;-48
2022/04/11 05:18:51;;;;;;;11.27;4.67;;;2.50;1.00;;;;;;5010427;28;20183;-49
2022/04/11 05:21:17;;;;;;;14.40;4.37;;;2.60;1.00;;;;;;5010478;28;20241;-49
2022/04/11 05:23:43;;;;;;;13.40;5.57;;;2.60;1.00;;;;;;5026923;28;20210;-48
2022/04/11 05:26:08;;;;;;;6.60;4.30;;;2.60;1.00;;;;;;5027762;28;20668;-48
2022/04/11 05:28:34;;;;;;;10.70;5.10;;;2.60;1.00;;;;;;5027432;28;20175;-49
2022/04/11 05:31:00;;;;;;;6.90;4.30;;;2.70;1.00;;;;;;5026662;28;20561;-49
2022/04/11 05:33:26;;;;;;;6.63;4.70;;;2.80;1.00;;;;;;5028141;28;20842;-48
2022/04/11 05:35:52;;;;;;;11.77;4.50;;;2.90;1.00;;;;;;5027827;28;20577;-49
2022/04/11 05:38:19;;;;;;;7.53;4.43;;;2.90;1.00;;;;;;5027390;28;20217;-48
2022/04/11 05:40:45;;;;;;;14.63;5.30;;;3.00;1.00;;;;;;5027587;28;20460;-48
2022/04/11 05:43:13;;;;;;;12.10;5.10;;;3.00;1.00;;;;;;5010743;28;20445;-49
2022/04/11 05:45:39;;;;;;;11.67;5.03;;;3.10;1.00;;;;;;5027954;28;20449;-49
2022/04/11 05:48:05;;;;;;;7.30;4.73;;;3.20;1.00;;;;;;5009353;28;20458;-48
2022/04/11 05:50:30;;;;;;;8.23;5.13;;;3.30;1.00;;;;;;5030259;28;21223;-49
2022/04/11 05:52:56;;;;;;;13.57;4.73;;;3.40;1.00;;;;;;5030954;28;20461;-48
2022/04/11 05:55:23;;;;;;;7.83;5.00;;;3.50;1.00;;;;;;5031319;28;20619;-48
2022/04/11 05:57:48;;;;;;;9.03;4.87;;;3.70;1.00;;;;;;5030013;28;20645;-49
2022/04/11 06:00:15;;;;;;;8.70;4.47;;;3.80;1.00;;;;;;5012995;28;20428;-48
2022/04/11 06:02:40;;;;;;;10.60;4.30;;;3.90;1.00;;;;;;5031545;28;20258;-49
2022/04/11 06:05:07;;;;;;;7.40;4.73;;;4.00;1.00;;;;;;5032434;28;20512;-48
2022/04/11 06:07:33;;;;;;;6.27;4.10;;;4.20;1.00;;;;;;5030045;28;20221;-48
2022/04/11 06:09:59;;;;;;;14.10;4.33;;;4.40;99.90;;;;;;5025140;28;20935;-48
2022/04/11 06:12:26;;;;;;;6.97;4.60;;;4.70;99.90;;;;;;5033605;28;20190;-48
2022/04/11 06:14:53;;;;;;;9.00;4.70;;;4.90;99.90;;;;;;5030763;28;20843;-48
2022/04/11 06:17:23;;;;;;;14.57;5.40;;;5.20;99.90;;;;;;5031325;28;20472;-48
2022/04/11 06:19:52;;;;;;;10.93;4.47;;;5.50;99.90;;;;;;5031829;28;20460;-48
2022/04/11 06:22:18;;;;;;;14.77;4.40;;;5.70;99.90;;;;;;5030603;28;20437;-48
2022/04/11 06:24:47;;;;;;;12.87;4.50;;;5.90;99.90;;;;;;5013147;28;20914;-49
2022/04/11 06:27:13;;;;;;;5.27;4.17;;;6.10;99.90;;;;;;5030799;28;20644;-48
2022/04/11 06:29:38;;;;;;;7.67;4.03;;;6.20;99.90;;;;;;5030915;28;20433;-48
2022/04/11 06:32:05;;;;;;;11.23;4.60;;;6.50;99.90;;;;;;5025304;28;20180;-48
2022/04/11 06:34:31;;;;;;;9.90;4.63;;;6.70;99.90;;;;;;5030852;28;20253;-48
2022/04/11 06:36:57;;;;;;;6.87;4.00;;;6.90;99.90;;;;;;5019462;28;20473;-48
2022/04/11 06:39:22;;;;;;;13.60;4.73;;;7.00;99.90;;;;;;5031174;28;20433;-48
2022/04/11 06:41:49;;;;;;;9.97;4.40;;;7.10;99.90;;;;;;5030880;28;20183;-48
2022/04/11 06:44:15;;;;;;;10.17;3.97;;;7.20;99.90;;;;;;5031286;28;20285;-48
2022/04/11 06:46:41;;;;;;;8.97;3.93;;;7.20;99.90;;;;;;5008805;28;21178;-48
2022/04/11 06:49:07;;;;;;;9.43;4.17;;;7.20;99.90;;;;;;5007455;28;20508;-48
2022/04/11 06:51:33;;;;;;;9.40;3.90;;;7.40;99.90;;;;;;5010057;28;20773;-48
2022/04/11 06:53:58;;;;;;;7.80;3.70;;;7.50;99.90;;;;;;5011296;28;20409;-48
2022/04/11 06:56:24;;;;;;;12.07;4.93;;;7.80;99.90;;;;;;5011636;28;20207;-48
2022/04/11 06:58:49;;;;;;;6.97;3.90;;;8.10;99.90;;;;;;5012038;28;20183;-48
2022/04/11 07:01:15;;;;;;;12.93;3.90;;;8.20;99.90;;;;;;5010597;28;20191;-48
2022/04/11 07:03:40;;;;;;;4.57;3.60;;;8.40;99.90;;;;;;5009785;28;20197;-48
2022/04/11 07:06:06;;;;;;;10.80;4.20;;;8.50;99.90;;;;;;5001777;28;20200;-49
2022/04/11 07:08:31;;;;;;;6.50;3.60;;;8.70;99.90;;;;;;5009837;28;20206;-48
2022/04/11 07:10:59;;;;;;;8.37;3.50;;;8.70;99.90;;;;;;5011172;28;20659;-48
2022/04/11 07:13:24;;;;;;;10.93;3.50;;;8.80;99.90;;;;;;5011098;28;20259;-48
2022/04/11 07:15:50;;;;;;;8.80;3.40;;;8.90;99.90;;;;;;5010749;28;21035;-49
2022/04/11 07:18:15;;;;;;;5.40;3.30;;;9.00;99.90;;;;;;5010960;28;20554;-48
2022/04/11 07:20:41;;;;;;;14.57;4.27;;;9.20;99.90;;;;;;5008793;28;20227;-48
2022/04/11 07:23:06;;;;;;;15.70;3.70;;;9.50;99.90;;;;;;5012742;28;20270;-48
2022/04/11 07:25:32;;;;;;;6.90;3.30;;;9.60;99.90;;;;;;5011178;28;20697;-49
2022/04/11 07:27:58;;;;;;;6.20;2.90;;;9.80;99.90;;;;;;5008328;28;20580;-48
2022/04/11 07:30:24;;;;;;;5.40;2.70;;;10.10;99.90;;;;;;5009919;28;20419;-48
2022/04/11 07:32:50;;;;;;;5.57;2.80;;;10.40;99.90;;;;;;5008594;28;20184;-54
2022/04/11 07:35:15;;;;;;;8.27;3.87;;;10.60;99.90;;;;;;5010209;28;20188;-48
2022/04/11 07:37:41;;;;;;;5.33;2.90;;;10.80;99.90;;;;;;5009686;28;20466;-48
2022/04/11 07:40:07;;;;;;;11.53;3.00;;;11.10;99.90;;;;;;5009806;28;20187;-49
2022/04/11 07:42:33;;;;;;;10.80;3.47;;;11.30;99.90;;;;;;5008499;28;20215;-48
2022/04/11 07:44:58;;;;;;;7.77;3.40;;;11.40;99.90;;;;;;5009104;28;20488;-49
2022/04/11 07:47:25;;;;;;;8.10;3.50;;;11.60;99.90;;;;;;5025021;28;20270;-48
2022/04/11 07:49:51;;;;;;;11.27;3.00;;;11.70;99.90;;;;;;5032730;28;20202;-48
2022/04/11 07:52:16;;;;;;;7.87;3.47;;;11.90;99.90;;;;;;5029442;28;20446;-48
2022/04/11 07:54:42;;;;;;;13.70;4.63;;;12.00;99.90;;;;;;5029743;28;20198;-48
2022/04/11 07:57:09;;;;;;;9.80;3.17;;;11.80;99.90;;;;;;5030911;28;20520;-48
2022/04/11 07:59:34;;;;;;;11.90;3.53;;;12.00;99.90;;;;;;5028754;28;20181;-48
2022/04/11 08:02:01;;;;;;;6.37;3.20;;;12.10;99.90;;;;;;5025138;28;20434;-49
2022/04/11 08:04:29;;;;;;;10.17;3.10;;;12.20;99.90;;;;;;5026829;28;20187;-49
2022/04/11 08:06:55;;;;;;;5.80;3.60;;;12.60;99.90;;;;;;5018480;28;20446;-48
2022/04/11 08:09:20;;;;;;;10.43;2.83;;;12.90;99.90;;;;;;5012101;28;20483;-48
2022/04/11 08:11:46;;;;;;;8.03;2.80;;;13.10;99.90;;;;;;5013780;28;20696;-48
2022/04/11 08:14:11;;;;;;;7.10;2.93;;;13.20;99.90;;;;;;5027852;28;20559;-48
2022/04/11 08:16:37;;;;;;;7.37;2.80;;;13.30;99.90;;;;;;5026069;28;20203;-48
2022/04/11 08:19:03;;;;;;;7.23;2.70;;;13.40;99.90;;;;;;5027659;28;20210;-48
2022/04/11 08:21:28;;;;;;;8.03;3.10;;;13.40;99.90;;;;;;5033725;28;20175;-48
2022/04/11 08:23:55;;;;;;;13.30;2.80;;;13.50;99.90;;;;;;5033779;28;20205;-49
2022/04/11 08:26:21;;;;;;;17.20;3.20;;;13.60;99.90;;;;;;5013476;28;20190;-48
2022/04/11 08:28:46;;;;;;;12.43;2.63;;;14.00;99.90;;;;;;5015476;28;20453;-49
2022/04/11 08:31:12;;;;;;;9.23;2.50;;;14.30;99.90;;;;;;5026263;28;20187;-49
2022/04/11 08:33:39;;;;;;;8.80;2.60;;;14.30;99.90;;;;;;5027997;28;20187;-48
2022/04/11 08:36:04;;;;;;;5.27;2.47;;;14.40;99.90;;;;;;5027521;28;20467;-48
2022/04/11 08:38:30;;;;;;;10.43;2.90;;;14.10;99.90;;;;;;5033282;28;20186;-48
2022/04/11 08:40:57;;;;;;;8.10;2.80;;;14.20;99.90;;;;;;5025929;28;20183;-48
2022/04/11 08:43:23;;;;;;;5.95;2.50;;;14.50;99.90;;;;;;5024286;28;21266;-48
2022/04/11 08:45:53;;;;;;;10.20;2.70;;;14.80;99.90;;;;;;5026157;28;20341;-49
2022/04/11 08:48:22;;;;;;;6.07;2.63;;;15.00;99.90;;;;;;5025262;28;21035;-48
2022/04/11 08:50:48;;;;;;;7.37;2.50;;;14.90;99.90;;;;;;5027537;28;20434;-49
2022/04/11 08:53:18;;;;;;;5.40;2.63;;;14.90;99.90;;;;;;5027690;28;20417;-48
2022/04/11 08:55:45;;;;;;;6.87;2.30;;;15.20;99.90;;;;;;5025380;28;20468;-49
2022/04/11 08:58:11;;;;;;;5.03;1.90;;;15.40;99.90;;;;;;5026900;28;20441;-48
2022/04/11 09:00:37;;;;;;;9.73;2.40;;;15.40;99.90;;;;;;5027198;28;20194;-48
2022/04/11 09:03:03;;;;;;;8.37;2.77;;;15.40;99.90;;;;;;5022271;28;20449;-48
2022/04/11 09:05:29;;;;;;;4.37;2.40;;;14.70;99.90;;;;;;5029531;28;20218;-48
2022/04/11 09:07:58;;;;;;;6.60;2.53;;;14.20;99.90;;;;;;5027211;28;20465;-48
2022/04/11 09:10:29;;;;;;;8.50;2.17;;;13.60;99.90;;;;;;5012583;28;20270;-48
2022/04/11 09:12:59;;;;;;;7.30;1.90;;;13.00;99.90;;;;;;5031280;28;20480;-48
2022/04/11 09:15:27;;;;;;;3.50;2.10;;;13.00;99.90;;;;;;5030138;28;20520;-48
2022/04/11 09:17:54;;;;;;;4.80;2.67;;;13.20;99.90;;;;;;5027347;28;20433;-46
2022/04/11 09:20:31;;;;;;;5.30;2.10;;;13.80;99.90;;;;;;5013533;28;20434;-49
2022/04/11 09:22:58;;;;;;;2.97;1.90;;;14.30;99.90;;;;;;5030035;28;20445;-46
2022/04/11 09:25:31;;;;;;;10.13;1.97;;;14.70;99.90;;;;;;5030795;28;20426;-46
2022/04/11 09:28:12;;;;;;;5.10;2.03;;;14.80;99.90;;;;;;5026170;28;20953;-46
2022/04/11 09:30:39;;;;;;;4.07;1.70;;;14.90;99.90;;;;;;5028705;28;20437;-46
2022/04/11 09:33:06;;;;;;;8.60;1.97;;;14.90;99.90;;;;;;5029491;28;20520;-46
2022/04/11 09:35:34;;;;;;;7.07;1.90;;;15.20;99.90;;;;;;5029722;28;20442;-46
2022/04/11 09:38:16;;;;;;;3.07;1.90;;;14.90;99.90;;;;;;5030742;28;20446;-48
2022/04/11 09:41:07;;;;;;;6.30;2.37;;;14.80;99.90;;;;;;5030285;28;20944;-49
2022/04/11 09:43:34;;;;;;;3.27;2.03;;;14.60;99.90;;;;;;5027431;28;20430;-49
2022/04/11 09:46:02;;;;;;;4.10;2.20;;;14.40;99.90;;;;;;5032115;28;21033;-46
2022/04/11 09:48:32;;;;;;;2.57;1.40;;;14.20;99.90;;;;;;5026341;28;20472;-46
2022/04/11 09:50:59;;;;;;;3.43;1.33;;;13.90;99.90;;;;;;5032848;28;20445;-46
2022/04/11 09:53:29;;;;;;;5.33;1.70;;;13.70;99.90;;;;;;5016441;28;20438;-49
2022/04/11 09:55:55;;;;;;;7.53;2.07;;;13.30;99.90;;;;;;5028874;28;20536;-49
2022/04/11 09:58:22;;;;;;;7.43;2.70;;;13.10;99.90;;;;;;5027486;28;20525;-46
2022/04/11 10:00:50;;;;;;;3.53;1.63;;;13.10;99.90;;;;;;5028611;28;20175;-47
2022/04/11 10:03:17;;;;;;;4.57;1.97;;;12.90;99.90;;;;;;5029015;28;20473;-46
2022/04/11 10:05:42;;;;;;;4.90;1.80;;;12.60;99.90;;;;;;5029621;28;20443;-46
2022/04/11 10:08:10;;;;;;;3.23;1.80;;;12.10;99.90;;;;;;5028095;28;20468;-46
2022/04/11 10:10:39;;;;;;;7.40;2.20;;;11.80;99.90;;;;;;5027810;28;20484;-47
2022/04/11 10:13:10;;;;;;;5.60;2.10;;;11.50;99.90;;;;;;5028068;28;20448;-46
2022/04/11 10:15:37;;;;;;;4.30;2.37;;;11.50;99.90;;;;;;5028865;28;20472;-46
2022/04/11 10:18:03;;;;;;;5.43;1.90;;;11.70;99.90;;;;;;5035620;28;20441;-46
2022/04/11 10:20:31;;;;;;;4.60;2.00;;;11.60;99.90;;;;;;5031991;28;20504;-46
2022/04/11 10:23:11;;;;;;;4.27;1.70;;;11.40;99.90;;;;;;5033491;28;20448;-46
2022/04/11 10:25:44;;;;;;;3.77;2.00;;;11.50;99.90;;;;;;5033078;28;20453;-46
2022/04/11 10:28:23;;;;;;;3.07;1.90;;;11.80;99.90;;;;;;5030453;28;20441;-46
2022/04/11 10:31:10;;;;;;;6.67;1.90;;;12.20;99.90;;;;;;5046533;28;20945;-46
2022/04/11 10:33:48;;;;;;;6.00;2.10;;;13.10;99.90;;;;;;5040450;28;20431;-47
2022/04/11 10:36:28;;;;;;;3.73;2.23;;;14.10;99.90;;;;;;5032158;28;20466;-47
2022/04/11 10:39:12;;;;;;;4.20;2.03;;;14.60;99.90;;;;;;5034363;28;20472;-46
2022/04/11 10:42:06;;;;;;;5.63;2.27;;;14.10;99.90;;;;;;5011396;28;20406;-46
2022/04/11 10:44:40;;;;;;;1.83;1.50;;;13.50;99.90;;;;;;5048105;28;20529;-46
2022/04/11 10:47:09;;;;;;;4.50;2.07;;;13.00;99.90;;;;;;5040743;28;20954;-47
2022/04/11 10:49:50;;;;;;;8.63;1.93;;;12.50;99.90;;;;;;5044320;28;20449;-46
2022/04/11 10:52:35;;;;;;;4.17;2.30;;;12.40;99.90;;;;;;5011253;28;20452;-46
2022/04/11 10:55:22;;;;;;;3.93;1.90;;;13.00;99.90;;;;;;5015129;28;20505;-47
2022/04/11 10:57:56;;;;;;;7.53;1.90;;;14.60;99.90;;;;;;5034397;28;20461;-47
2022/04/11 11:00:43;;;;;;;6.07;2.00;;;15.80;99.90;;;;;;5031232;28;20941;-47
2022/04/11 11:03:13;;;;;;;4.27;2.00;;;16.10;99.90;;;;;;5028712;28;20792;-47
2022/04/11 11:05:48;;;;;;;5.67;1.90;;;15.90;99.90;;;;;;5013654;28;20888;-47
2022/04/11 11:08:14;;;;;;;3.00;1.93;;;15.80;99.90;;;;;;5029370;28;20472;-47
2022/04/11 11:10:54;;;;;;;6.10;1.67;;;16.00;99.90;;;;;;5031124;28;20504;-47
2022/04/11 11:13:27;;;;;;;5.30;1.90;;;16.60;99.90;;;;;;5027145;28;20977;-47
2022/04/11 11:15:54;;;;;;;3.47;1.90;;;16.90;99.90;;;;;;5034396;28;20483;-47
2022/04/11 11:18:20;;;;;;;4.00;1.90;;;16.70;99.90;;;;;;5025816;28;20487;-47
2022/04/11 11:20:57;;;;;;;5.30;2.10;;;16.90;99.90;;;;;;5041718;28;20453;-53
2022/04/11 11:23:31;;;;;;;6.60;2.13;;;16.80;99.90;;;;;;5042206;28;20182;-47
2022/04/11 11:26:08;;;;;;;4.37;1.97;;;16.90;99.90;;;;;;5029140;28;20467;-47
2022/04/11 11:28:33;;;;;;;5.33;1.80;;;16.60;99.90;;;;;;5036155;28;20448;-47
2022/04/11 11:31:00;;;;;;;6.30;2.33;;;17.40;99.90;;;;;;5031526;28;20888;-47
2022/04/11 11:33:27;;;;;;;6.23;2.00;;;18.30;99.90;;;;;;5051859;28;20166;-47
2022/04/11 11:35:54;;;;;;;6.30;2.10;;;18.90;99.90;;;;;;5016588;28;20519;-47
2022/04/11 11:38:29;;;;;;;2.80;1.90;;;19.40;99.90;;;;;;5033878;28;20448;-47
2022/04/11 11:41:03;;;;;;;9.03;2.40;;;19.20;99.90;;;;;;5031712;28;20416;-47
2022/04/11 11:43:30;;;;;;;5.80;2.13;;;19.00;99.90;;;;;;5012382;28;20835;-53
2022/04/11 11:46:06;;;;;;;3.30;2.17;;;19.40;99.90;;;;;;5011257;28;20557;-47
2022/04/11 11:48:33;;;;;;;4.63;2.20;;;18.70;99.90;;;;;;5029096;28;20460;-47
2022/04/11 11:51:00;;;;;;;4.17;2.40;;;18.20;99.90;;;;;;5030980;28;20532;-47
2022/04/11 11:53:40;;;;;;;5.70;1.97;;;17.80;99.90;;;;;;5031585;28;20465;-47
2022/04/11 11:56:09;;;;;;;2.73;1.93;;;18.10;99.90;;;;;;5029429;28;20465;-47
2022/04/11 11:58:36;;;;;;;6.10;1.83;;;18.50;99.90;;;;;;5028843;28;21284;-47
2022/04/11 12:01:03;;;;;;;4.10;1.90;;;19.10;99.90;;;;;;5032134;28;20426;-47
2022/04/11 12:06:12;;;;;;;4.27;1.60;;;19.10;99.90;;;;;;5031866;28;20424;-47
2022/04/11 12:08:37;;;;;;;4.20;2.13;;;18.70;99.90;;;;;;5032207;28;20432;-47
2022/04/11 12:11:06;;;;;;;7.63;2.40;;;18.70;99.90;;;;;;5031157;28;20251;-47
2022/04/11 12:13:32;;;;;;;2.77;1.93;;;18.80;99.90;;;;;;5031392;28;20632;-47
2022/04/11 12:16:15;;;;;;;6.20;1.97;;;19.20;99.90;;;;;;5026586;28;20454;-47
2022/04/11 12:19:01;;;;;;;5.13;2.03;;;19.40;99.90;;;;;;5013737;28;20838;-47
2022/04/11 12:21:38;;;;;;;8.20;2.30;;;19.40;99.90;;;;;;5031754;28;20508;-47
2022/04/11 12:24:06;;;;;;;3.13;1.87;;;19.90;99.90;;;;;;5030096;28;20472;-47
2022/04/11 12:26:40;;;;;;;5.83;2.17;;;19.50;99.90;;;;;;5030419;28;20521;-47
2022/04/11 12:29:10;;;;;;;3.77;1.97;;;18.80;99.90;;;;;;5029940;28;20524;-47
2022/04/11 12:31:37;;;;;;;4.87;2.00;;;18.90;99.90;;;;;;5030792;28;20930;-47
2022/04/11 12:34:15;;;;;;;4.13;2.10;;;18.70;99.90;;;;;;5030003;28;20437;-48
2022/04/11 12:36:58;;;;;;;2.57;1.97;;;18.60;99.90;;;;;;5030462;28;20768;-47
2022/04/11 12:39:25;;;;;;;2.77;1.70;;;19.00;99.90;;;;;;5028063;28;20452;-47
2022/04/11 12:41:51;;;;;;;4.00;1.90;;;19.70;99.90;;;;;;5012332;28;20445;-47
2022/04/11 12:44:17;;;;;;;3.93;2.30;;;19.70;99.90;;;;;;5030472;28;20453;-47
2022/04/11 12:46:47;;;;;;;4.27;2.90;;;19.50;99.90;;;;;;5029870;28;20477;-47
2022/04/11 12:49:16;;;;;;;7.17;2.73;;;18.60;99.90;;;;;;5030621;28;20417;-47
2022/04/11 12:51:42;;;;;;;4.03;1.97;;;17.60;99.90;;;;;;5031274;28;20533;-47
2022/04/11 12:54:13;;;;;;;3.60;2.30;;;17.50;99.90;;;;;;5030395;28;20472;-47
2022/04/11 12:56:47;;;;;;;5.50;2.37;;;18.10;99.90;;;;;;5012365;28;20469;-47
2022/04/11 12:59:32;;;;;;;4.03;2.37;;;19.00;99.90;;;;;;5029904;28;20520;-48
2022/04/11 13:02:12;;;;;;;3.10;1.80;;;19.60;99.90;;;;;;5030226;28;20541;-47